sensor_id;sensor_type;location;lat;lon;timestamp;P1;durP1;ratioP1;P2;durP2;ratioP2
33644;SDS011;19986;48.190;16.366;2024-03-08T00:00:24;87.82;;;79.95;;
33644;SDS011;19986;48.190;16.366;2024-03-08T00:02:49;90.25;;;81.75;;
33644;SDS011;19986;48.190;16.366;2024-03-08T00:05:19;91.00;;;82.43;;
33644;SDS011;19986;48.190;16.366;2024-03-08T00:07:45;86.32;;;77.82;;
33644;SDS011;19986;48.190;16.366;2024-03-08T00:10:13;88.20;;;79.65;;
33644;SDS011;19986;48.190;16.366;2024-03-08T00:12:39;87.78;;;79.63;;
33644;SDS011;19986;48.190;16.366;2024-03-08T00:15:10;89.97;;;81.43;;
33644;SDS011;19986;48.190;16.366;2024-03-08T00:17:39;87.43;;;79.18;;
33644;SDS011;19986;48.190;16.366;2024-03-08T00:20:07;86.28;;;77.78;;
33644;SDS011;19986;48.190;16.366;2024-03-08T00:22:36;87.95;;;79.55;;
33644;SDS011;19986;48.190;16.366;2024-03-08T00:25:05;87.10;;;78.63;;
33644;SDS011;19986;48.190;16.366;2024-03-08T00:27:35;90.55;;;82.13;;
33644;SDS011;19986;48.190;16.366;2024-03-08T00:30:02;86.13;;;78.05;;
33644;SDS011;19986;48.190;16.366;2024-03-08T00:32:28;85.70;;;77.53;;
33644;SDS011;19986;48.190;16.366;2024-03-08T00:34:54;87.50;;;79.20;;
33644;SDS011;19986;48.190;16.366;2024-03-08T00:37:21;91.82;;;83.10;;
33644;SDS011;19986;48.190;16.366;2024-03-08T00:39:48;89.35;;;80.93;;
33644;SDS011;19986;48.190;16.366;2024-03-08T00:42:17;88.30;;;80.00;;
33644;SDS011;19986;48.190;16.366;2024-03-08T00:44:44;90.97;;;82.22;;
33644;SDS011;19986;48.190;16.366;2024-03-08T00:47:10;87.97;;;79.63;;
33644;SDS011;19986;48.190;16.366;2024-03-08T00:49:36;91.55;;;83.07;;
33644;SDS011;19986;48.190;16.366;2024-03-08T00:52:06;89.97;;;81.55;;
33644;SDS011;19986;48.190;16.366;2024-03-08T00:54:36;86.50;;;78.25;;
33644;SDS011;19986;48.190;16.366;2024-03-08T00:57:02;91.55;;;83.00;;
33644;SDS011;19986;48.190;16.366;2024-03-08T00:59:29;90.15;;;81.30;;
33644;SDS011;19986;48.190;16.366;2024-03-08T01:02:01;88.03;;;79.60;;
33644;SDS011;19986;48.190;16.366;2024-03-08T01:04:27;92.57;;;83.80;;
33644;SDS011;19986;48.190;16.366;2024-03-08T01:07:01;88.25;;;79.85;;
33644;SDS011;19986;48.190;16.366;2024-03-08T01:09:27;86.93;;;78.78;;
33644;SDS011;19986;48.190;16.366;2024-03-08T01:11:54;87.00;;;78.57;;
33644;SDS011;19986;48.190;16.366;2024-03-08T01:14:20;89.55;;;80.85;;
33644;SDS011;19986;48.190;16.366;2024-03-08T01:16:49;90.03;;;81.22;;
33644;SDS011;19986;48.190;16.366;2024-03-08T01:19:15;91.55;;;82.75;;
33644;SDS011;19986;48.190;16.366;2024-03-08T01:21:42;90.93;;;82.55;;
33644;SDS011;19986;48.190;16.366;2024-03-08T01:24:07;93.60;;;84.75;;
33644;SDS011;19986;48.190;16.366;2024-03-08T01:26:35;86.85;;;78.55;;
33644;SDS011;19986;48.190;16.366;2024-03-08T01:29:02;89.97;;;81.32;;
33644;SDS011;19986;48.190;16.366;2024-03-08T01:31:29;89.28;;;80.95;;
33644;SDS011;19986;48.190;16.366;2024-03-08T01:33:56;91.28;;;82.47;;
33644;SDS011;19986;48.190;16.366;2024-03-08T01:36:23;87.70;;;79.47;;
33644;SDS011;19986;48.190;16.366;2024-03-08T01:38:50;92.40;;;83.15;;
33644;SDS011;19986;48.190;16.366;2024-03-08T01:41:17;92.80;;;83.82;;
33644;SDS011;19986;48.190;16.366;2024-03-08T01:43:44;88.22;;;79.45;;
33644;SDS011;19986;48.190;16.366;2024-03-08T01:46:25;90.00;;;81.53;;
33644;SDS011;19986;48.190;16.366;2024-03-08T01:48:54;92.80;;;83.53;;
33644;SDS011;19986;48.190;16.366;2024-03-08T01:51:21;91.22;;;82.15;;
33644;SDS011;19986;48.190;16.366;2024-03-08T01:53:49;87.60;;;79.03;;
33644;SDS011;19986;48.190;16.366;2024-03-08T01:56:16;92.32;;;83.40;;
33644;SDS011;19986;48.190;16.366;2024-03-08T01:58:43;90.20;;;81.55;;
33644;SDS011;19986;48.190;16.366;2024-03-08T02:01:13;86.32;;;77.97;;
33644;SDS011;19986;48.190;16.366;2024-03-08T02:03:42;92.45;;;83.43;;
33644;SDS011;19986;48.190;16.366;2024-03-08T02:06:13;90.75;;;81.63;;
33644;SDS011;19986;48.190;16.366;2024-03-08T02:08:44;86.60;;;77.72;;
33644;SDS011;19986;48.190;16.366;2024-03-08T02:11:11;91.50;;;82.65;;
33644;SDS011;19986;48.190;16.366;2024-03-08T02:13:37;90.30;;;81.30;;
33644;SDS011;19986;48.190;16.366;2024-03-08T02:16:04;89.47;;;80.75;;
33644;SDS011;19986;48.190;16.366;2024-03-08T02:18:36;90.65;;;81.60;;
33644;SDS011;19986;48.190;16.366;2024-03-08T02:21:06;90.03;;;81.13;;
33644;SDS011;19986;48.190;16.366;2024-03-08T02:23:37;92.30;;;83.05;;
33644;SDS011;19986;48.190;16.366;2024-03-08T02:26:04;91.15;;;82.32;;
33644;SDS011;19986;48.190;16.366;2024-03-08T02:28:30;87.97;;;79.13;;
33644;SDS011;19986;48.190;16.366;2024-03-08T02:30:57;89.95;;;81.50;;
33644;SDS011;19986;48.190;16.366;2024-03-08T02:33:24;90.55;;;81.65;;
33644;SDS011;19986;48.190;16.366;2024-03-08T02:35:52;91.55;;;82.70;;
33644;SDS011;19986;48.190;16.366;2024-03-08T02:38:20;90.90;;;81.68;;
33644;SDS011;19986;48.190;16.366;2024-03-08T02:40:49;92.72;;;83.47;;
33644;SDS011;19986;48.190;16.366;2024-03-08T02:43:16;92.22;;;83.07;;
33644;SDS011;19986;48.190;16.366;2024-03-08T02:45:47;91.88;;;83.03;;
33644;SDS011;19986;48.190;16.366;2024-03-08T02:48:14;93.53;;;84.07;;
33644;SDS011;19986;48.190;16.366;2024-03-08T02:50:42;91.20;;;82.35;;
33644;SDS011;19986;48.190;16.366;2024-03-08T02:53:10;88.80;;;80.07;;
33644;SDS011;19986;48.190;16.366;2024-03-08T02:55:38;92.35;;;83.20;;
33644;SDS011;19986;48.190;16.366;2024-03-08T02:58:07;92.90;;;83.63;;
33644;SDS011;19986;48.190;16.366;2024-03-08T03:00:36;90.53;;;81.45;;
33644;SDS011;19986;48.190;16.366;2024-03-08T03:03:04;90.68;;;81.70;;
33644;SDS011;19986;48.190;16.366;2024-03-08T03:05:32;91.88;;;82.65;;
33644;SDS011;19986;48.190;16.366;2024-03-08T03:08:00;89.80;;;81.13;;
33644;SDS011;19986;48.190;16.366;2024-03-08T03:10:26;90.88;;;81.93;;
33644;SDS011;19986;48.190;16.366;2024-03-08T03:12:52;92.50;;;83.20;;
33644;SDS011;19986;48.190;16.366;2024-03-08T03:15:18;91.68;;;82.82;;
33644;SDS011;19986;48.190;16.366;2024-03-08T03:17:46;91.88;;;82.72;;
33644;SDS011;19986;48.190;16.366;2024-03-08T03:20:14;95.18;;;85.93;;
33644;SDS011;19986;48.190;16.366;2024-03-08T03:22:41;93.40;;;84.18;;
33644;SDS011;19986;48.190;16.366;2024-03-08T03:25:07;90.47;;;81.78;;
33644;SDS011;19986;48.190;16.366;2024-03-08T03:27:38;92.72;;;83.72;;
33644;SDS011;19986;48.190;16.366;2024-03-08T03:30:06;92.63;;;83.63;;
33644;SDS011;19986;48.190;16.366;2024-03-08T03:32:52;95.00;;;85.45;;
33644;SDS011;19986;48.190;16.366;2024-03-08T03:35:20;92.45;;;83.55;;
33644;SDS011;19986;48.190;16.366;2024-03-08T03:37:47;93.55;;;84.45;;
33644;SDS011;19986;48.190;16.366;2024-03-08T03:40:29;92.05;;;83.05;;
33644;SDS011;19986;48.190;16.366;2024-03-08T03:42:56;95.03;;;85.65;;
33644;SDS011;19986;48.190;16.366;2024-03-08T03:45:23;93.68;;;84.50;;
33644;SDS011;19986;48.190;16.366;2024-03-08T03:47:50;93.00;;;83.93;;
33644;SDS011;19986;48.190;16.366;2024-03-08T03:50:19;92.72;;;83.40;;
33644;SDS011;19986;48.190;16.366;2024-03-08T03:52:46;92.82;;;83.45;;
33644;SDS011;19986;48.190;16.366;2024-03-08T03:55:13;92.32;;;83.35;;
33644;SDS011;19986;48.190;16.366;2024-03-08T03:57:39;85.78;;;77.20;;
33644;SDS011;19986;48.190;16.366;2024-03-08T04:00:06;91.07;;;82.03;;
33644;SDS011;19986;48.190;16.366;2024-03-08T04:02:39;89.57;;;80.90;;
33644;SDS011;19986;48.190;16.366;2024-03-08T04:05:06;87.57;;;78.85;;
33644;SDS011;19986;48.190;16.366;2024-03-08T04:07:33;90.97;;;82.00;;
33644;SDS011;19986;48.190;16.366;2024-03-08T04:10:00;91.10;;;82.20;;
33644;SDS011;19986;48.190;16.366;2024-03-08T04:12:27;94.22;;;85.03;;
33644;SDS011;19986;48.190;16.366;2024-03-08T04:14:55;91.53;;;82.80;;
33644;SDS011;19986;48.190;16.366;2024-03-08T04:17:21;90.25;;;81.65;;
33644;SDS011;19986;48.190;16.366;2024-03-08T04:19:47;93.93;;;84.80;;
33644;SDS011;19986;48.190;16.366;2024-03-08T04:22:16;91.53;;;82.43;;
33644;SDS011;19986;48.190;16.366;2024-03-08T04:24:43;91.07;;;81.68;;
33644;SDS011;19986;48.190;16.366;2024-03-08T04:27:09;91.45;;;82.68;;
33644;SDS011;19986;48.190;16.366;2024-03-08T04:29:35;94.45;;;85.35;;
33644;SDS011;19986;48.190;16.366;2024-03-08T04:32:05;95.40;;;86.55;;
33644;SDS011;19986;48.190;16.366;2024-03-08T04:34:32;90.32;;;81.30;;
33644;SDS011;19986;48.190;16.366;2024-03-08T04:36:59;92.63;;;83.55;;
33644;SDS011;19986;48.190;16.366;2024-03-08T04:39:27;92.15;;;83.57;;
33644;SDS011;19986;48.190;16.366;2024-03-08T04:41:57;92.43;;;83.57;;
33644;SDS011;19986;48.190;16.366;2024-03-08T04:44:28;95.88;;;86.57;;
33644;SDS011;19986;48.190;16.366;2024-03-08T04:46:55;90.82;;;81.70;;
33644;SDS011;19986;48.190;16.366;2024-03-08T04:49:21;92.60;;;83.68;;
33644;SDS011;19986;48.190;16.366;2024-03-08T04:51:48;91.68;;;82.65;;
33644;SDS011;19986;48.190;16.366;2024-03-08T04:54:13;90.07;;;81.47;;
33644;SDS011;19986;48.190;16.366;2024-03-08T04:56:39;88.68;;;79.97;;
33644;SDS011;19986;48.190;16.366;2024-03-08T04:59:06;88.68;;;79.97;;
33644;SDS011;19986;48.190;16.366;2024-03-08T05:01:33;93.63;;;84.65;;
33644;SDS011;19986;48.190;16.366;2024-03-08T05:04:03;90.43;;;81.43;;
33644;SDS011;19986;48.190;16.366;2024-03-08T05:06:31;95.25;;;85.93;;
33644;SDS011;19986;48.190;16.366;2024-03-08T05:08:56;90.10;;;81.22;;
33644;SDS011;19986;48.190;16.366;2024-03-08T05:11:26;89.03;;;80.43;;
33644;SDS011;19986;48.190;16.366;2024-03-08T05:13:52;95.30;;;86.18;;
33644;SDS011;19986;48.190;16.366;2024-03-08T05:16:19;93.18;;;84.05;;
33644;SDS011;19986;48.190;16.366;2024-03-08T05:18:47;88.50;;;79.72;;
33644;SDS011;19986;48.190;16.366;2024-03-08T05:21:13;95.15;;;85.95;;
33644;SDS011;19986;48.190;16.366;2024-03-08T05:23:42;92.50;;;83.38;;
33644;SDS011;19986;48.190;16.366;2024-03-08T05:26:08;94.07;;;84.82;;
33644;SDS011;19986;48.190;16.366;2024-03-08T05:28:34;93.40;;;84.47;;
33644;SDS011;19986;48.190;16.366;2024-03-08T05:31:01;88.65;;;79.95;;
33644;SDS011;19986;48.190;16.366;2024-03-08T05:33:31;89.40;;;80.85;;
33644;SDS011;19986;48.190;16.366;2024-03-08T05:35:57;92.65;;;83.55;;
33644;SDS011;19986;48.190;16.366;2024-03-08T05:38:22;91.88;;;82.97;;
33644;SDS011;19986;48.190;16.366;2024-03-08T05:40:49;90.40;;;81.47;;
33644;SDS011;19986;48.190;16.366;2024-03-08T05:43:16;94.28;;;84.82;;
33644;SDS011;19986;48.190;16.366;2024-03-08T05:45:45;93.78;;;84.85;;
33644;SDS011;19986;48.190;16.366;2024-03-08T05:48:11;93.28;;;83.93;;
33644;SDS011;19986;48.190;16.366;2024-03-08T05:50:39;94.53;;;85.15;;
33644;SDS011;19986;48.190;16.366;2024-03-08T05:53:05;94.93;;;85.63;;
33644;SDS011;19986;48.190;16.366;2024-03-08T05:55:34;95.00;;;86.07;;
33644;SDS011;19986;48.190;16.366;2024-03-08T05:58:00;92.10;;;83.18;;
33644;SDS011;19986;48.190;16.366;2024-03-08T06:00:27;92.68;;;83.50;;
33644;SDS011;19986;48.190;16.366;2024-03-08T06:02:57;96.93;;;87.43;;
33644;SDS011;19986;48.190;16.366;2024-03-08T06:05:25;91.70;;;82.70;;
33644;SDS011;19986;48.190;16.366;2024-03-08T06:07:51;90.53;;;81.38;;
33644;SDS011;19986;48.190;16.366;2024-03-08T06:10:18;93.20;;;84.05;;
33644;SDS011;19986;48.190;16.366;2024-03-08T06:12:45;94.13;;;84.85;;
33644;SDS011;19986;48.190;16.366;2024-03-08T06:15:11;95.75;;;86.60;;
33644;SDS011;19986;48.190;16.366;2024-03-08T06:17:46;94.20;;;85.00;;
33644;SDS011;19986;48.190;16.366;2024-03-08T06:20:12;92.60;;;83.50;;
33644;SDS011;19986;48.190;16.366;2024-03-08T06:22:38;91.28;;;82.38;;
33644;SDS011;19986;48.190;16.366;2024-03-08T06:25:08;94.13;;;85.03;;
33644;SDS011;19986;48.190;16.366;2024-03-08T06:27:36;92.93;;;83.72;;
33644;SDS011;19986;48.190;16.366;2024-03-08T06:30:04;92.97;;;83.68;;
33644;SDS011;19986;48.190;16.366;2024-03-08T06:32:34;93.78;;;84.45;;
33644;SDS011;19986;48.190;16.366;2024-03-08T06:35:01;90.35;;;81.82;;
33644;SDS011;19986;48.190;16.366;2024-03-08T06:37:32;89.50;;;80.40;;
33644;SDS011;19986;48.190;16.366;2024-03-08T06:39:59;91.80;;;82.90;;
33644;SDS011;19986;48.190;16.366;2024-03-08T06:42:29;91.85;;;82.78;;
33644;SDS011;19986;48.190;16.366;2024-03-08T06:44:59;90.68;;;82.15;;
33644;SDS011;19986;48.190;16.366;2024-03-08T06:47:30;92.47;;;83.40;;
33644;SDS011;19986;48.190;16.366;2024-03-08T06:49:56;92.00;;;83.03;;
33644;SDS011;19986;48.190;16.366;2024-03-08T06:52:22;95.55;;;86.28;;
33644;SDS011;19986;48.190;16.366;2024-03-08T06:54:49;96.80;;;87.38;;
33644;SDS011;19986;48.190;16.366;2024-03-08T06:57:15;96.45;;;86.45;;
33644;SDS011;19986;48.190;16.366;2024-03-08T06:59:42;92.88;;;83.88;;
33644;SDS011;19986;48.190;16.366;2024-03-08T07:02:08;96.68;;;87.25;;
33644;SDS011;19986;48.190;16.366;2024-03-08T07:04:34;97.13;;;87.22;;
33644;SDS011;19986;48.190;16.366;2024-03-08T07:07:09;94.63;;;85.32;;
33644;SDS011;19986;48.190;16.366;2024-03-08T07:09:38;97.18;;;87.47;;
33644;SDS011;19986;48.190;16.366;2024-03-08T07:12:04;91.05;;;82.18;;
33644;SDS011;19986;48.190;16.366;2024-03-08T07:14:30;96.13;;;86.93;;
33644;SDS011;19986;48.190;16.366;2024-03-08T07:16:59;96.95;;;87.38;;
33644;SDS011;19986;48.190;16.366;2024-03-08T07:19:25;98.07;;;88.05;;
33644;SDS011;19986;48.190;16.366;2024-03-08T07:21:51;94.93;;;85.50;;
33644;SDS011;19986;48.190;16.366;2024-03-08T07:24:17;93.30;;;84.00;;
33644;SDS011;19986;48.190;16.366;2024-03-08T07:26:45;95.10;;;85.68;;
33644;SDS011;19986;48.190;16.366;2024-03-08T07:29:17;92.60;;;83.38;;
33644;SDS011;19986;48.190;16.366;2024-03-08T07:31:45;93.85;;;84.80;;
33644;SDS011;19986;48.190;16.366;2024-03-08T07:34:31;93.43;;;84.22;;
33644;SDS011;19986;48.190;16.366;2024-03-08T07:36:59;91.35;;;82.70;;
33644;SDS011;19986;48.190;16.366;2024-03-08T07:39:24;93.32;;;84.30;;
33644;SDS011;19986;48.190;16.366;2024-03-08T07:41:50;92.85;;;83.53;;
33644;SDS011;19986;48.190;16.366;2024-03-08T07:44:23;91.20;;;82.35;;
33644;SDS011;19986;48.190;16.366;2024-03-08T07:46:49;90.90;;;82.10;;
33644;SDS011;19986;48.190;16.366;2024-03-08T07:49:15;94.85;;;85.80;;
33644;SDS011;19986;48.190;16.366;2024-03-08T07:51:41;91.75;;;82.65;;
33644;SDS011;19986;48.190;16.366;2024-03-08T07:54:10;93.72;;;84.25;;
33644;SDS011;19986;48.190;16.366;2024-03-08T07:56:36;97.68;;;87.50;;
33644;SDS011;19986;48.190;16.366;2024-03-08T07:59:02;93.82;;;84.32;;
33644;SDS011;19986;48.190;16.366;2024-03-08T08:01:31;91.88;;;82.82;;
33644;SDS011;19986;48.190;16.366;2024-03-08T08:03:59;95.70;;;86.30;;
33644;SDS011;19986;48.190;16.366;2024-03-08T08:06:26;94.53;;;85.05;;
33644;SDS011;19986;48.190;16.366;2024-03-08T08:08:53;97.75;;;87.93;;
33644;SDS011;19986;48.190;16.366;2024-03-08T08:11:19;93.78;;;84.13;;
33644;SDS011;19986;48.190;16.366;2024-03-08T08:13:45;91.68;;;82.30;;
33644;SDS011;19986;48.190;16.366;2024-03-08T08:16:11;95.95;;;85.90;;
33644;SDS011;19986;48.190;16.366;2024-03-08T08:18:39;93.75;;;83.90;;
33644;SDS011;19986;48.190;16.366;2024-03-08T08:21:06;93.45;;;83.35;;
33644;SDS011;19986;48.190;16.366;2024-03-08T08:23:32;99.30;;;89.43;;
33644;SDS011;19986;48.190;16.366;2024-03-08T08:25:58;95.10;;;85.38;;
33644;SDS011;19986;48.190;16.366;2024-03-08T08:28:24;94.90;;;85.25;;
33644;SDS011;19986;48.190;16.366;2024-03-08T08:30:50;93.57;;;83.57;;
33644;SDS011;19986;48.190;16.366;2024-03-08T08:33:16;95.15;;;85.30;;
33644;SDS011;19986;48.190;16.366;2024-03-08T08:35:42;93.40;;;83.40;;
33644;SDS011;19986;48.190;16.366;2024-03-08T08:38:13;95.72;;;86.03;;
33644;SDS011;19986;48.190;16.366;2024-03-08T08:40:39;94.28;;;84.80;;
33644;SDS011;19986;48.190;16.366;2024-03-08T08:43:06;94.72;;;85.00;;
33644;SDS011;19986;48.190;16.366;2024-03-08T08:45:32;91.00;;;81.63;;
33644;SDS011;19986;48.190;16.366;2024-03-08T08:47:59;95.30;;;84.88;;
33644;SDS011;19986;48.190;16.366;2024-03-08T08:50:25;96.68;;;86.43;;
33644;SDS011;19986;48.190;16.366;2024-03-08T08:52:52;96.15;;;86.10;;
33644;SDS011;19986;48.190;16.366;2024-03-08T08:55:21;96.53;;;86.07;;
33644;SDS011;19986;48.190;16.366;2024-03-08T08:57:50;100.72;;;89.03;;
33644;SDS011;19986;48.190;16.366;2024-03-08T09:00:17;97.45;;;87.05;;
33644;SDS011;19986;48.190;16.366;2024-03-08T09:02:45;109.38;;;91.53;;
33644;SDS011;19986;48.190;16.366;2024-03-08T09:05:13;109.47;;;89.60;;
33644;SDS011;19986;48.190;16.366;2024-03-08T09:07:44;107.93;;;87.90;;
33644;SDS011;19986;48.190;16.366;2024-03-08T09:10:12;101.03;;;87.80;;
33644;SDS011;19986;48.190;16.366;2024-03-08T09:12:39;98.28;;;85.82;;
33644;SDS011;19986;48.190;16.366;2024-03-08T09:15:06;98.47;;;84.45;;
33644;SDS011;19986;48.190;16.366;2024-03-08T09:17:38;99.60;;;88.30;;
33644;SDS011;19986;48.190;16.366;2024-03-08T09:20:09;100.93;;;87.30;;
33644;SDS011;19986;48.190;16.366;2024-03-08T09:22:43;106.57;;;86.82;;
33644;SDS011;19986;48.190;16.366;2024-03-08T09:25:10;108.40;;;86.00;;
33644;SDS011;19986;48.190;16.366;2024-03-08T09:27:36;108.13;;;88.22;;
33644;SDS011;19986;48.190;16.366;2024-03-08T09:30:03;104.10;;;86.07;;
33644;SDS011;19986;48.190;16.366;2024-03-08T09:32:29;100.80;;;84.70;;
33644;SDS011;19986;48.190;16.366;2024-03-08T09:35:13;100.15;;;88.45;;
33644;SDS011;19986;48.190;16.366;2024-03-08T09:37:40;102.03;;;85.93;;
33644;SDS011;19986;48.190;16.366;2024-03-08T09:40:06;105.80;;;89.70;;
33644;SDS011;19986;48.190;16.366;2024-03-08T09:42:41;106.72;;;87.32;;
33644;SDS011;19986;48.190;16.366;2024-03-08T09:45:11;102.05;;;87.60;;
33644;SDS011;19986;48.190;16.366;2024-03-08T09:47:41;99.90;;;88.97;;
33644;SDS011;19986;48.190;16.366;2024-03-08T09:50:08;94.03;;;83.57;;
33644;SDS011;19986;48.190;16.366;2024-03-08T09:52:38;98.20;;;86.85;;
33644;SDS011;19986;48.190;16.366;2024-03-08T09:55:05;104.88;;;88.80;;
33644;SDS011;19986;48.190;16.366;2024-03-08T09:57:36;94.25;;;83.90;;
33644;SDS011;19986;48.190;16.366;2024-03-08T10:00:04;99.53;;;85.32;;
33644;SDS011;19986;48.190;16.366;2024-03-08T10:02:47;96.10;;;85.45;;
33644;SDS011;19986;48.190;16.366;2024-03-08T10:05:14;100.57;;;81.68;;
33644;SDS011;19986;48.190;16.366;2024-03-08T10:07:40;96.30;;;81.50;;
33644;SDS011;19986;48.190;16.366;2024-03-08T10:10:06;97.68;;;82.03;;
33644;SDS011;19986;48.190;16.366;2024-03-08T10:12:34;89.88;;;77.18;;
33644;SDS011;19986;48.190;16.366;2024-03-08T10:15:00;89.30;;;79.80;;
33644;SDS011;19986;48.190;16.366;2024-03-08T10:17:26;87.00;;;78.03;;
33644;SDS011;19986;48.190;16.366;2024-03-08T10:19:57;87.70;;;78.28;;
33644;SDS011;19986;48.190;16.366;2024-03-08T10:22:25;86.75;;;77.65;;
33644;SDS011;19986;48.190;16.366;2024-03-08T10:24:51;89.10;;;79.43;;
33644;SDS011;19986;48.190;16.366;2024-03-08T10:27:17;88.50;;;78.97;;
33644;SDS011;19986;48.190;16.366;2024-03-08T10:29:47;86.68;;;77.70;;
33644;SDS011;19986;48.190;16.366;2024-03-08T10:32:13;86.70;;;77.07;;
33644;SDS011;19986;48.190;16.366;2024-03-08T10:34:40;86.53;;;77.53;;
33644;SDS011;19986;48.190;16.366;2024-03-08T10:37:07;82.85;;;74.18;;
33644;SDS011;19986;48.190;16.366;2024-03-08T10:39:36;82.78;;;74.85;;
33644;SDS011;19986;48.190;16.366;2024-03-08T10:42:03;78.90;;;71.35;;
33644;SDS011;19986;48.190;16.366;2024-03-08T10:44:33;78.82;;;71.00;;
33644;SDS011;19986;48.190;16.366;2024-03-08T10:49:38;77.97;;;70.43;;
33644;SDS011;19986;48.190;16.366;2024-03-08T10:52:10;77.40;;;69.80;;
33644;SDS011;19986;48.190;16.366;2024-03-08T10:54:38;76.00;;;69.10;;
33644;SDS011;19986;48.190;16.366;2024-03-08T10:57:06;74.80;;;67.97;;
33644;SDS011;19986;48.190;16.366;2024-03-08T10:59:34;74.82;;;68.07;;
33644;SDS011;19986;48.190;16.366;2024-03-08T11:02:00;75.28;;;68.38;;
33644;SDS011;19986;48.190;16.366;2024-03-08T11:04:27;69.40;;;63.00;;
33644;SDS011;19986;48.190;16.366;2024-03-08T11:07:04;73.95;;;67.32;;
33644;SDS011;19986;48.190;16.366;2024-03-08T11:09:37;71.85;;;65.63;;
33644;SDS011;19986;48.190;16.366;2024-03-08T11:12:22;68.68;;;63.00;;
33644;SDS011;19986;48.190;16.366;2024-03-08T11:15:01;67.57;;;61.90;;
33644;SDS011;19986;48.190;16.366;2024-03-08T11:20:12;62.20;;;57.60;;
33644;SDS011;19986;48.190;16.366;2024-03-08T11:22:56;60.17;;;55.70;;
33644;SDS011;19986;48.190;16.366;2024-03-08T11:25:33;59.42;;;55.22;;
33644;SDS011;19986;48.190;16.366;2024-03-08T11:28:10;63.13;;;58.22;;
33644;SDS011;19986;48.190;16.366;2024-03-08T11:30:44;61.03;;;56.22;;
33644;SDS011;19986;48.190;16.366;2024-03-08T11:33:14;59.47;;;55.10;;
33644;SDS011;19986;48.190;16.366;2024-03-08T11:35:41;57.95;;;53.78;;
33644;SDS011;19986;48.190;16.366;2024-03-08T11:38:11;55.33;;;51.65;;
33644;SDS011;19986;48.190;16.366;2024-03-08T11:40:42;54.67;;;50.83;;
33644;SDS011;19986;48.190;16.366;2024-03-08T11:43:12;57.30;;;53.40;;
33644;SDS011;19986;48.190;16.366;2024-03-08T11:45:40;57.53;;;53.45;;
33644;SDS011;19986;48.190;16.366;2024-03-08T11:48:07;57.33;;;53.20;;
33644;SDS011;19986;48.190;16.366;2024-03-08T11:50:33;56.15;;;52.42;;
33644;SDS011;19986;48.190;16.366;2024-03-08T11:53:00;56.08;;;52.10;;
33644;SDS011;19986;48.190;16.366;2024-03-08T11:55:32;57.45;;;53.42;;
33644;SDS011;19986;48.190;16.366;2024-03-08T11:58:16;56.70;;;52.80;;
33644;SDS011;19986;48.190;16.366;2024-03-08T12:00:43;56.65;;;52.63;;
33644;SDS011;19986;48.190;16.366;2024-03-08T12:03:11;57.83;;;53.90;;
33644;SDS011;19986;48.190;16.366;2024-03-08T12:05:38;57.58;;;53.38;;
33644;SDS011;19986;48.190;16.366;2024-03-08T12:08:04;59.78;;;55.53;;
33644;SDS011;19986;48.190;16.366;2024-03-08T12:10:32;59.85;;;55.58;;
33644;SDS011;19986;48.190;16.366;2024-03-08T12:13:00;59.13;;;55.22;;
33644;SDS011;19986;48.190;16.366;2024-03-08T12:15:27;57.08;;;52.97;;
33644;SDS011;19986;48.190;16.366;2024-03-08T12:17:54;58.83;;;54.67;;
33644;SDS011;19986;48.190;16.366;2024-03-08T12:20:24;59.17;;;54.78;;
33644;SDS011;19986;48.190;16.366;2024-03-08T12:22:52;61.00;;;56.40;;
33644;SDS011;19986;48.190;16.366;2024-03-08T12:25:19;60.90;;;56.13;;
33644;SDS011;19986;48.190;16.366;2024-03-08T12:27:45;60.50;;;55.90;;
33644;SDS011;19986;48.190;16.366;2024-03-08T12:30:19;63.20;;;58.60;;
33644;SDS011;19986;48.190;16.366;2024-03-08T12:32:53;61.78;;;57.17;;
33644;SDS011;19986;48.190;16.366;2024-03-08T12:35:22;60.55;;;56.22;;
33644;SDS011;19986;48.190;16.366;2024-03-08T12:37:58;60.85;;;56.58;;
33644;SDS011;19986;48.190;16.366;2024-03-08T12:40:29;62.00;;;57.47;;
33644;SDS011;19986;48.190;16.366;2024-03-08T12:43:01;60.47;;;56.05;;
33644;SDS011;19986;48.190;16.366;2024-03-08T12:45:28;57.50;;;52.67;;
33644;SDS011;19986;48.190;16.366;2024-03-08T12:47:54;59.38;;;55.08;;
33644;SDS011;19986;48.190;16.366;2024-03-08T12:50:21;59.80;;;55.40;;
33644;SDS011;19986;48.190;16.366;2024-03-08T12:52:48;59.85;;;55.60;;
33644;SDS011;19986;48.190;16.366;2024-03-08T12:55:16;60.25;;;55.85;;
33644;SDS011;19986;48.190;16.366;2024-03-08T12:57:43;57.88;;;53.65;;
33644;SDS011;19986;48.190;16.366;2024-03-08T13:00:11;56.78;;;52.65;;
33644;SDS011;19986;48.190;16.366;2024-03-08T13:02:48;54.65;;;50.80;;
33644;SDS011;19986;48.190;16.366;2024-03-08T13:05:16;59.33;;;55.22;;
33644;SDS011;19986;48.190;16.366;2024-03-08T13:07:46;56.58;;;52.78;;
33644;SDS011;19986;48.190;16.366;2024-03-08T13:10:13;57.38;;;53.35;;
33644;SDS011;19986;48.190;16.366;2024-03-08T13:12:40;54.35;;;50.53;;
33644;SDS011;19986;48.190;16.366;2024-03-08T13:15:08;56.33;;;52.63;;
33644;SDS011;19986;48.190;16.366;2024-03-08T13:17:37;53.53;;;50.03;;
33644;SDS011;19986;48.190;16.366;2024-03-08T13:20:06;55.67;;;51.83;;
33644;SDS011;19986;48.190;16.366;2024-03-08T13:22:33;54.72;;;51.17;;
33644;SDS011;19986;48.190;16.366;2024-03-08T13:25:02;54.60;;;51.00;;
33644;SDS011;19986;48.190;16.366;2024-03-08T13:27:32;56.92;;;52.83;;
33644;SDS011;19986;48.190;16.366;2024-03-08T13:29:58;54.95;;;51.10;;
33644;SDS011;19986;48.190;16.366;2024-03-08T13:32:24;57.53;;;53.83;;
33644;SDS011;19986;48.190;16.366;2024-03-08T13:34:52;57.40;;;53.53;;
33644;SDS011;19986;48.190;16.366;2024-03-08T13:37:19;56.15;;;52.45;;
33644;SDS011;19986;48.190;16.366;2024-03-08T13:39:46;55.40;;;51.65;;
33644;SDS011;19986;48.190;16.366;2024-03-08T13:42:13;56.25;;;52.60;;
33644;SDS011;19986;48.190;16.366;2024-03-08T13:44:45;55.05;;;51.35;;
33644;SDS011;19986;48.190;16.366;2024-03-08T13:47:12;55.50;;;51.90;;
33644;SDS011;19986;48.190;16.366;2024-03-08T13:49:39;56.03;;;52.15;;
33644;SDS011;19986;48.190;16.366;2024-03-08T13:52:05;55.50;;;51.70;;
33644;SDS011;19986;48.190;16.366;2024-03-08T13:54:34;57.92;;;53.95;;
33644;SDS011;19986;48.190;16.366;2024-03-08T13:57:01;58.42;;;54.47;;
33644;SDS011;19986;48.190;16.366;2024-03-08T13:59:29;53.22;;;49.72;;
33644;SDS011;19986;48.190;16.366;2024-03-08T14:02:13;56.78;;;52.80;;
33644;SDS011;19986;48.190;16.366;2024-03-08T14:04:39;56.40;;;52.45;;
33644;SDS011;19986;48.190;16.366;2024-03-08T14:07:07;57.75;;;53.65;;
33644;SDS011;19986;48.190;16.366;2024-03-08T14:09:33;57.65;;;53.38;;
33644;SDS011;19986;48.190;16.366;2024-03-08T14:12:05;58.92;;;54.63;;
33644;SDS011;19986;48.190;16.366;2024-03-08T14:14:32;57.53;;;53.33;;
33644;SDS011;19986;48.190;16.366;2024-03-08T14:17:02;58.28;;;53.92;;
33644;SDS011;19986;48.190;16.366;2024-03-08T14:19:29;58.28;;;54.25;;